Stone Mountain, GA (30088)

1:10 AM EDT on September 24, 2014 (GMT -0400)
Oak Creek | Change Station
CLOSE
Current Station
Personal Weather Station
Location: Avondale Estates, GA
Elevation: 975 ft
Nearby Weather Stations

Elev 975 ft 33.78 °N, 84.25 °W | Updated 4 minutes ago

Clear
Clear
59.1 °F
Feels Like 59.1 °F
N
0.0
Wind Variable Wind from SE
Gusts 1.0 mph

Today
High -- | Low -- °F
--% Chance of Precip.
Yesterday
High -- | Low -- °F
Precip. -- in
7:26 AM 7:30 PM
Waning Crescent, 0% visible
Pressure 30.25 in
Visibility 10.0 miles
Clouds Clear
Dew Point 53 °F
Humidity 81%
Rainfall 0.00 in
Snow Depth Not available.
UV 0 out of 12
Pollen 8.20 out of 12
Ozone Good
PM2.5 Good
Flu Activity Not available.
METAR KPDK 240453Z AUTO 09005KT 10SM CLR 15/11 A3027 RMK AO2 SLP242 T01500111 402440139

More Conditions Fewer Conditions

Pressure 30.25 in
Visibility 10.0 miles
Clouds Clear
Dew Point 53 °F
Humidity 81%
Rainfall 0.00 in
Snow Depth Not available.
UV 0 out of 12
Pollen 8.20 out of 12
Ozone Good
PM2.5 Good
Flu Activity Not available.
METAR KPDK 240453Z AUTO 09005KT 10SM CLR 15/11 A3027 RMK AO2 SLP242 T01500111 402440139

More Conditions Fewer Conditions

10-Day Weather Forecast

Almanac

Astronomy

Sep. 24, 2014 Rise Set
Actual Time 7:26 AM EDT 7:30 PM EDT
Civil Twilight 7:01 AM EDT 7:55 PM EDT
Nautical Twilight 6:32 AM EDT 8:24 PM EDT
Astronomical Twilight 6:02 AM EDT 8:53 PM EDT
Moon 7:43 AM EDT 7:44 PM EDT
Length of Visible Light 12h 54m
Length of Day
12h 04m
Tomorrow will be 2m 4s shorter.
Waning Crescent, 0% of the Moon is Illuminated
Today
Waning Crescent
Sep 24
New
Oct 1
First Quarter
Oct 8
Full
Oct 15
Last Quarter

Today's Extremes

State Highs State Lows

Community

WunderPhotos

Upload Photos

1,755,891 photos uploaded!

WunderBlogs® & News

Nearby

Air Quality

  Air Quality AQ Index Pollutant
Yesterday Good
PM10
Yesterday Good
OZONE
Current Good
PM2.5
Current Good
OZONE
Tuesday Good
OZONE
Tuesday Good
PM2.5
Wednesday Good
OZONE
Wednesday Good
PM2.5

Snow Depth

Station Depth Elevation
No new snow has been reported.

Earthquake Activity

City Distance Mag. Time & Date
No recent earthquake activity has been reported nearby.
Minimum magnitude displayed is 2.5.

Coastal Water Temperatures

Place Temperature
No Stations Reporting

Nearby Weather Stations